sensor_id;sensor_type;location;lat;lon;timestamp;pressure;altitude;pressure_sealevel;temperature;humidity
30897;BME280;64229;52.246;21.054;2022-11-15T00:01:29;101014.19;;;5.11;100.00
30897;BME280;64229;52.246;21.054;2022-11-15T00:03:55;101006.19;;;5.17;100.00
30897;BME280;64229;52.246;21.054;2022-11-15T00:06:20;100999.25;;;5.23;100.00
30897;BME280;64229;52.246;21.054;2022-11-15T00:08:45;101004.13;;;5.19;100.00
30897;BME280;64229;52.246;21.054;2022-11-15T00:11:12;100999.84;;;5.25;100.00
30897;BME280;64229;52.246;21.054;2022-11-15T00:13:39;100999.84;;;5.25;100.00
30897;BME280;64229;52.246;21.054;2022-11-15T00:16:04;100984.41;;;5.22;100.00
30897;BME280;64229;52.246;21.054;2022-11-15T00:18:31;100988.25;;;5.19;100.00
30897;BME280;64229;52.246;21.054;2022-11-15T00:21:03;100992.94;;;5.24;100.00
30897;BME280;64229;52.246;21.054;2022-11-15T00:23:29;100987.22;;;5.27;100.00
30897;BME280;64229;52.246;21.054;2022-11-15T00:25:57;100973.50;;;5.37;100.00
30897;BME280;64229;52.246;21.054;2022-11-15T00:28:24;100983.09;;;5.31;100.00
30897;BME280;64229;52.246;21.054;2022-11-15T00:30:49;100975.50;;;5.41;100.00
30897;BME280;64229;52.246;21.054;2022-11-15T00:33:14;100964.28;;;5.46;100.00
30897;BME280;64229;52.246;21.054;2022-11-15T00:35:40;100951.88;;;5.46;100.00
30897;BME280;64229;52.246;21.054;2022-11-15T00:38:05;100963.41;;;5.52;100.00
30897;BME280;64229;52.246;21.054;2022-11-15T00:40:30;100967.88;;;5.58;100.00
30897;BME280;64229;52.246;21.054;2022-11-15T00:42:56;100955.63;;;5.64;100.00
30897;BME280;64229;52.246;21.054;2022-11-15T00:45:22;100947.66;;;5.64;99.78
30897;BME280;64229;52.246;21.054;2022-11-15T00:47:47;100940.84;;;5.74;99.33
30897;BME280;64229;52.246;21.054;2022-11-15T00:50:13;100941.59;;;5.81;98.49
30897;BME280;64229;52.246;21.054;2022-11-15T00:52:38;100941.81;;;5.80;98.53
30897;BME280;64229;52.246;21.054;2022-11-15T00:55:04;100934.34;;;5.70;99.35
30897;BME280;64229;52.246;21.054;2022-11-15T00:57:30;100935.25;;;5.64;99.84
30897;BME280;64229;52.246;21.054;2022-11-15T00:59:55;100931.44;;;5.54;100.00
30897;BME280;64229;52.246;21.054;2022-11-15T01:02:20;100924.94;;;5.49;100.00
30897;BME280;64229;52.246;21.054;2022-11-15T01:04:46;100917.44;;;5.46;100.00
30897;BME280;64229;52.246;21.054;2022-11-15T01:07:11;100917.81;;;5.50;100.00
30897;BME280;64229;52.246;21.054;2022-11-15T01:09:36;100920.25;;;5.51;100.00
30897;BME280;64229;52.246;21.054;2022-11-15T01:12:02;100913.75;;;5.72;99.79
30897;BME280;64229;52.246;21.054;2022-11-15T01:14:27;100914.78;;;5.71;99.21
30897;BME280;64229;52.246;21.054;2022-11-15T01:16:53;100912.63;;;5.62;99.47
30897;BME280;64229;52.246;21.054;2022-11-15T01:19:18;100906.97;;;5.58;100.00
30897;BME280;64229;52.246;21.054;2022-11-15T01:21:43;100898.66;;;5.55;100.00
30897;BME280;64229;52.246;21.054;2022-11-15T01:24:12;100895.78;;;5.56;100.00
30897;BME280;64229;52.246;21.054;2022-11-15T01:26:38;100895.50;;;5.64;100.00
30897;BME280;64229;52.246;21.054;2022-11-15T01:29:03;100891.97;;;5.70;99.56
30897;BME280;64229;52.246;21.054;2022-11-15T01:31:29;100869.34;;;5.49;99.91
30897;BME280;64229;52.246;21.054;2022-11-15T01:33:54;100885.41;;;5.55;100.00
30897;BME280;64229;52.246;21.054;2022-11-15T01:36:21;100867.25;;;5.33;100.00
30897;BME280;64229;52.246;21.054;2022-11-15T01:38:52;100868.22;;;5.39;100.00
30897;BME280;64229;52.246;21.054;2022-11-15T01:41:20;100869.84;;;5.40;100.00
30897;BME280;64229;52.246;21.054;2022-11-15T01:43:51;100880.81;;;5.43;100.00
30897;BME280;64229;52.246;21.054;2022-11-15T01:46:35;100875.31;;;5.45;100.00
30897;BME280;64229;52.246;21.054;2022-11-15T01:49:06;100850.59;;;5.51;100.00
30897;BME280;64229;52.246;21.054;2022-11-15T01:51:37;100868.72;;;5.72;100.00
30897;BME280;64229;52.246;21.054;2022-11-15T01:54:10;100854.53;;;5.67;100.00
30897;BME280;64229;52.246;21.054;2022-11-15T01:56:44;100866.97;;;5.66;100.00
30897;BME280;64229;52.246;21.054;2022-11-15T01:59:11;100858.22;;;5.66;100.00
30897;BME280;64229;52.246;21.054;2022-11-15T02:01:38;100848.66;;;5.65;100.00
30897;BME280;64229;52.246;21.054;2022-11-15T02:04:11;100848.88;;;5.81;100.00
30897;BME280;64229;52.246;21.054;2022-11-15T02:06:38;100845.94;;;5.90;99.18
30897;BME280;64229;52.246;21.054;2022-11-15T02:09:05;100844.00;;;5.60;99.81
30897;BME280;64229;52.246;21.054;2022-11-15T02:11:30;100831.75;;;5.41;100.00
30897;BME280;64229;52.246;21.054;2022-11-15T02:13:57;100847.59;;;5.22;100.00
30897;BME280;64229;52.246;21.054;2022-11-15T02:18:57;100844.19;;;5.15;100.00
30897;BME280;64229;52.246;21.054;2022-11-15T02:21:45;100837.41;;;5.19;100.00
30897;BME280;64229;52.246;21.054;2022-11-15T02:29:32;100839.19;;;5.50;100.00
30897;BME280;64229;52.246;21.054;2022-11-15T02:32:19;100829.81;;;5.55;100.00
30897;BME280;64229;52.246;21.054;2022-11-15T02:37:44;100832.53;;;5.66;100.00
30897;BME280;64229;52.246;21.054;2022-11-15T02:40:17;100826.44;;;5.84;100.00
30897;BME280;64229;52.246;21.054;2022-11-15T02:42:54;100820.44;;;5.95;98.63
30897;BME280;64229;52.246;21.054;2022-11-15T02:45:43;100822.56;;;5.87;99.52
30897;BME280;64229;52.246;21.054;2022-11-15T02:48:10;100811.16;;;5.86;100.00
30897;BME280;64229;52.246;21.054;2022-11-15T02:50:36;100814.13;;;5.96;98.68
30897;BME280;64229;52.246;21.054;2022-11-15T02:53:02;100812.88;;;5.99;98.50
30897;BME280;64229;52.246;21.054;2022-11-15T02:55:33;100804.53;;;5.95;98.62
30897;BME280;64229;52.246;21.054;2022-11-15T03:01:04;100801.88;;;5.95;98.45
30897;BME280;64229;52.246;21.054;2022-11-15T03:06:15;100803.06;;;5.99;98.21
30897;BME280;64229;52.246;21.054;2022-11-15T03:11:17;100794.22;;;5.69;99.40
30897;BME280;64229;52.246;21.054;2022-11-15T03:13:59;100792.16;;;5.71;100.00
30897;BME280;64229;52.246;21.054;2022-11-15T03:21:43;100782.56;;;5.51;100.00
30897;BME280;64229;52.246;21.054;2022-11-15T03:24:10;100770.22;;;5.45;100.00
30897;BME280;64229;52.246;21.054;2022-11-15T03:26:38;100771.53;;;5.36;100.00
30897;BME280;64229;52.246;21.054;2022-11-15T03:29:12;100773.84;;;5.26;100.00
30897;BME280;64229;52.246;21.054;2022-11-15T03:31:43;100753.41;;;5.15;100.00
30897;BME280;64229;52.246;21.054;2022-11-15T03:34:20;100753.94;;;5.23;100.00
30897;BME280;64229;52.246;21.054;2022-11-15T03:36:49;100751.81;;;5.32;100.00
30897;BME280;64229;52.246;21.054;2022-11-15T03:39:16;100745.06;;;5.36;100.00
30897;BME280;64229;52.246;21.054;2022-11-15T03:42:08;100738.44;;;5.45;100.00
30897;BME280;64229;52.246;21.054;2022-11-15T03:47:20;100733.59;;;5.42;100.00
30897;BME280;64229;52.246;21.054;2022-11-15T03:49:52;100733.00;;;5.22;100.00
30897;BME280;64229;52.246;21.054;2022-11-15T03:52:19;100739.09;;;5.22;100.00
30897;BME280;64229;52.246;21.054;2022-11-15T03:54:53;100734.53;;;5.30;100.00
30897;BME280;64229;52.246;21.054;2022-11-15T03:57:19;100725.19;;;5.27;100.00
30897;BME280;64229;52.246;21.054;2022-11-15T03:59:44;100732.69;;;5.30;100.00
30897;BME280;64229;52.246;21.054;2022-11-15T04:02:10;100729.94;;;5.18;100.00
30897;BME280;64229;52.246;21.054;2022-11-15T04:04:35;100725.78;;;5.29;100.00
30897;BME280;64229;52.246;21.054;2022-11-15T04:07:01;100714.16;;;5.30;100.00
30897;BME280;64229;52.246;21.054;2022-11-15T04:09:26;100714.84;;;5.44;100.00
30897;BME280;64229;52.246;21.054;2022-11-15T04:11:51;100717.91;;;5.41;100.00
30897;BME280;64229;52.246;21.054;2022-11-15T04:14:17;100719.53;;;5.42;100.00
30897;BME280;64229;52.246;21.054;2022-11-15T04:16:42;100714.47;;;5.22;100.00
30897;BME280;64229;52.246;21.054;2022-11-15T04:19:07;100709.44;;;5.14;100.00
30897;BME280;64229;52.246;21.054;2022-11-15T04:21:51;100701.13;;;5.10;100.00
30897;BME280;64229;52.246;21.054;2022-11-15T04:24:35;100707.84;;;5.13;100.00
30897;BME280;64229;52.246;21.054;2022-11-15T04:27:00;100696.00;;;5.15;100.00
30897;BME280;64229;52.246;21.054;2022-11-15T04:29:26;100701.59;;;5.26;100.00
30897;BME280;64229;52.246;21.054;2022-11-15T04:32:05;100702.75;;;5.30;100.00
30897;BME280;64229;52.246;21.054;2022-11-15T04:34:31;100685.84;;;5.31;100.00
30897;BME280;64229;52.246;21.054;2022-11-15T04:36:57;100696.44;;;5.31;100.00
30897;BME280;64229;52.246;21.054;2022-11-15T04:39:42;100698.09;;;5.32;100.00
30897;BME280;64229;52.246;21.054;2022-11-15T04:42:08;100690.41;;;5.42;100.00
30897;BME280;64229;52.246;21.054;2022-11-15T04:44:34;100686.81;;;5.36;100.00
30897;BME280;64229;52.246;21.054;2022-11-15T04:47:00;100689.81;;;5.40;100.00
30897;BME280;64229;52.246;21.054;2022-11-15T04:49:25;100687.56;;;5.43;100.00
30897;BME280;64229;52.246;21.054;2022-11-15T04:51:50;100693.16;;;5.54;100.00
30897;BME280;64229;52.246;21.054;2022-11-15T04:54:16;100693.00;;;5.67;100.00
30897;BME280;64229;52.246;21.054;2022-11-15T04:56:42;100688.16;;;5.64;100.00
30897;BME280;64229;52.246;21.054;2022-11-15T04:59:07;100692.88;;;5.73;100.00
30897;BME280;64229;52.246;21.054;2022-11-15T05:01:32;100696.22;;;5.69;100.00
30897;BME280;64229;52.246;21.054;2022-11-15T05:03:58;100687.34;;;5.45;100.00
30897;BME280;64229;52.246;21.054;2022-11-15T05:06:42;100694.53;;;5.38;100.00
30897;BME280;64229;52.246;21.054;2022-11-15T05:09:07;100690.13;;;5.50;100.00
30897;BME280;64229;52.246;21.054;2022-11-15T05:11:33;100676.75;;;5.45;100.00
30897;BME280;64229;52.246;21.054;2022-11-15T05:13:58;100682.41;;;5.48;100.00
30897;BME280;64229;52.246;21.054;2022-11-15T05:16:23;100681.09;;;5.58;100.00
30897;BME280;64229;52.246;21.054;2022-11-15T05:18:52;100671.56;;;5.68;100.00
30897;BME280;64229;52.246;21.054;2022-11-15T05:21:18;100673.81;;;5.83;99.00
30897;BME280;64229;52.246;21.054;2022-11-15T05:23:43;100682.44;;;5.78;99.34
30897;BME280;64229;52.246;21.054;2022-11-15T05:26:10;100682.22;;;5.80;99.81
30897;BME280;64229;52.246;21.054;2022-11-15T05:28:36;100673.78;;;5.71;100.00
30897;BME280;64229;52.246;21.054;2022-11-15T05:31:07;100674.47;;;5.67;100.00
30897;BME280;64229;52.246;21.054;2022-11-15T05:33:34;100678.78;;;5.61;100.00
30897;BME280;64229;52.246;21.054;2022-11-15T05:36:05;100675.56;;;5.59;100.00
30897;BME280;64229;52.246;21.054;2022-11-15T05:38:31;100673.06;;;5.46;100.00
30897;BME280;64229;52.246;21.054;2022-11-15T05:40:57;100655.00;;;5.25;100.00
30897;BME280;64229;52.246;21.054;2022-11-15T05:43:23;100670.06;;;5.42;100.00
30897;BME280;64229;52.246;21.054;2022-11-15T05:45:49;100671.53;;;5.38;100.00
30897;BME280;64229;52.246;21.054;2022-11-15T05:48:14;100675.03;;;5.50;100.00
30897;BME280;64229;52.246;21.054;2022-11-15T05:50:43;100671.47;;;5.45;100.00
30897;BME280;64229;52.246;21.054;2022-11-15T05:53:11;100672.41;;;5.50;100.00
30897;BME280;64229;52.246;21.054;2022-11-15T05:55:38;100662.09;;;5.61;100.00
30897;BME280;64229;52.246;21.054;2022-11-15T05:58:05;100661.97;;;5.56;100.00
30897;BME280;64229;52.246;21.054;2022-11-15T06:00:30;100658.28;;;5.38;100.00
30897;BME280;64229;52.246;21.054;2022-11-15T06:02:55;100659.47;;;5.42;100.00
30897;BME280;64229;52.246;21.054;2022-11-15T06:05:21;100655.88;;;5.55;100.00
30897;BME280;64229;52.246;21.054;2022-11-15T06:07:46;100662.13;;;5.42;100.00
30897;BME280;64229;52.246;21.054;2022-11-15T06:10:11;100662.03;;;5.31;100.00
30897;BME280;64229;52.246;21.054;2022-11-15T06:12:37;100667.41;;;5.42;100.00
30897;BME280;64229;52.246;21.054;2022-11-15T06:15:02;100662.53;;;5.39;100.00
30897;BME280;64229;52.246;21.054;2022-11-15T06:17:28;100664.38;;;5.39;100.00
30897;BME280;64229;52.246;21.054;2022-11-15T06:19:53;100669.09;;;5.55;100.00
30897;BME280;64229;52.246;21.054;2022-11-15T06:22:19;100672.09;;;5.59;100.00
30897;BME280;64229;52.246;21.054;2022-11-15T06:24:44;100670.03;;;5.61;100.00
30897;BME280;64229;52.246;21.054;2022-11-15T06:27:11;100677.03;;;5.55;100.00
30897;BME280;64229;52.246;21.054;2022-11-15T06:29:36;100673.72;;;5.60;100.00
30897;BME280;64229;52.246;21.054;2022-11-15T06:32:01;100675.63;;;5.71;98.82
30897;BME280;64229;52.246;21.054;2022-11-15T06:34:26;100657.94;;;5.35;100.00
30897;BME280;64229;52.246;21.054;2022-11-15T06:36:52;100663.22;;;5.16;100.00
30897;BME280;64229;52.246;21.054;2022-11-15T06:39:17;100667.03;;;5.02;100.00
30897;BME280;64229;52.246;21.054;2022-11-15T06:41:42;100665.00;;;5.22;100.00
30897;BME280;64229;52.246;21.054;2022-11-15T06:44:08;100661.81;;;5.14;100.00
30897;BME280;64229;52.246;21.054;2022-11-15T06:46:33;100664.69;;;5.12;100.00
30897;BME280;64229;52.246;21.054;2022-11-15T06:48:58;100671.22;;;5.10;100.00
30897;BME280;64229;52.246;21.054;2022-11-15T06:51:24;100678.50;;;5.14;100.00
30897;BME280;64229;52.246;21.054;2022-11-15T06:53:49;100675.63;;;5.16;100.00
30897;BME280;64229;52.246;21.054;2022-11-15T06:56:14;100677.78;;;5.44;100.00
30897;BME280;64229;52.246;21.054;2022-11-15T06:58:39;100669.53;;;5.52;100.00
30897;BME280;64229;52.246;21.054;2022-11-15T07:01:07;100683.16;;;5.56;100.00
30897;BME280;64229;52.246;21.054;2022-11-15T07:03:38;100687.97;;;5.40;100.00
30897;BME280;64229;52.246;21.054;2022-11-15T07:06:04;100678.94;;;5.30;100.00
30897;BME280;64229;52.246;21.054;2022-11-15T07:08:30;100675.78;;;5.39;100.00
30897;BME280;64229;52.246;21.054;2022-11-15T07:11:02;100680.22;;;5.45;100.00
30897;BME280;64229;52.246;21.054;2022-11-15T07:13:29;100682.19;;;5.50;100.00
30897;BME280;64229;52.246;21.054;2022-11-15T07:15:58;100673.72;;;5.60;99.89
30897;BME280;64229;52.246;21.054;2022-11-15T07:18:23;100682.41;;;5.48;99.33
30897;BME280;64229;52.246;21.054;2022-11-15T07:20:49;100686.28;;;5.28;100.00
30897;BME280;64229;52.246;21.054;2022-11-15T07:23:14;100667.19;;;5.26;100.00
30897;BME280;64229;52.246;21.054;2022-11-15T07:25:39;100691.97;;;5.49;98.85
30897;BME280;64229;52.246;21.054;2022-11-15T07:28:04;100681.53;;;5.36;97.89
30897;BME280;64229;52.246;21.054;2022-11-15T07:30:30;100674.16;;;5.02;99.73
30897;BME280;64229;52.246;21.054;2022-11-15T07:33:00;100672.72;;;4.99;100.00
30897;BME280;64229;52.246;21.054;2022-11-15T07:35:27;100683.25;;;5.06;99.77
30897;BME280;64229;52.246;21.054;2022-11-15T07:38:00;100674.06;;;5.08;100.00
30897;BME280;64229;52.246;21.054;2022-11-15T07:40:27;100671.72;;;5.00;100.00
30897;BME280;64229;52.246;21.054;2022-11-15T07:43:02;100671.72;;;5.18;100.00
30897;BME280;64229;52.246;21.054;2022-11-15T07:45:28;100659.47;;;5.24;99.37
30897;BME280;64229;52.246;21.054;2022-11-15T07:47:54;100671.16;;;5.16;99.32
30897;BME280;64229;52.246;21.054;2022-11-15T07:50:21;100666.88;;;5.15;99.48
30897;BME280;64229;52.246;21.054;2022-11-15T07:52:47;100669.31;;;5.17;100.00
30897;BME280;64229;52.246;21.054;2022-11-15T07:55:12;100665.00;;;5.22;100.00
30897;BME280;64229;52.246;21.054;2022-11-15T07:57:37;100659.31;;;5.56;98.92
30897;BME280;64229;52.246;21.054;2022-11-15T08:00:06;100659.91;;;5.58;97.59
30897;BME280;64229;52.246;21.054;2022-11-15T08:02:32;100661.16;;;5.55;96.82
30897;BME280;64229;52.246;21.054;2022-11-15T08:04:57;100652.13;;;5.26;98.23
30897;BME280;64229;52.246;21.054;2022-11-15T08:07:23;100647.41;;;5.10;100.00
30897;BME280;64229;52.246;21.054;2022-11-15T08:09:48;100647.56;;;5.15;100.00
30897;BME280;64229;52.246;21.054;2022-11-15T08:12:14;100647.78;;;5.32;99.80
30897;BME280;64229;52.246;21.054;2022-11-15T08:14:39;100643.81;;;5.22;99.81
30897;BME280;64229;52.246;21.054;2022-11-15T08:17:04;100641.00;;;5.17;100.00
30897;BME280;64229;52.246;21.054;2022-11-15T08:19:30;100638.59;;;5.34;99.56
30897;BME280;64229;52.246;21.054;2022-11-15T08:21:55;100631.31;;;5.30;98.31
30897;BME280;64229;52.246;21.054;2022-11-15T08:24:20;100634.34;;;5.15;99.37
30897;BME280;64229;52.246;21.054;2022-11-15T08:26:46;100623.44;;;5.05;99.58
30897;BME280;64229;52.246;21.054;2022-11-15T08:29:11;100623.28;;;5.00;100.00
30897;BME280;64229;52.246;21.054;2022-11-15T08:31:37;100622.91;;;4.96;100.00
30897;BME280;64229;52.246;21.054;2022-11-15T08:34:03;100634.78;;;5.12;100.00
30897;BME280;64229;52.246;21.054;2022-11-15T08:36:29;100632.31;;;5.10;100.00
30897;BME280;64229;52.246;21.054;2022-11-15T08:38:54;100624.31;;;5.17;100.00
30897;BME280;64229;52.246;21.054;2022-11-15T08:41:30;100609.72;;;5.33;98.85
30897;BME280;64229;52.246;21.054;2022-11-15T08:43:56;100623.13;;;5.49;98.02
30897;BME280;64229;52.246;21.054;2022-11-15T08:46:21;100622.91;;;5.51;97.88
30897;BME280;64229;52.246;21.054;2022-11-15T08:48:47;100602.31;;;5.53;96.90
30897;BME280;64229;52.246;21.054;2022-11-15T08:51:12;100623.63;;;5.58;95.63
30897;BME280;64229;52.246;21.054;2022-11-15T08:53:38;100614.91;;;5.39;97.18
30897;BME280;64229;52.246;21.054;2022-11-15T08:56:07;100626.81;;;5.30;97.74
30897;BME280;64229;52.246;21.054;2022-11-15T08:58:33;100629.09;;;5.27;98.47
30897;BME280;64229;52.246;21.054;2022-11-15T09:00:58;100616.16;;;5.55;96.26
30897;BME280;64229;52.246;21.054;2022-11-15T09:03:24;100619.91;;;5.47;96.88
30897;BME280;64229;52.246;21.054;2022-11-15T09:05:54;100613.28;;;5.38;97.97
30897;BME280;64229;52.246;21.054;2022-11-15T09:08:19;100605.63;;;5.30;99.07
30897;BME280;64229;52.246;21.054;2022-11-15T09:10:45;100606.53;;;5.42;98.54
30897;BME280;64229;52.246;21.054;2022-11-15T09:13:10;100609.25;;;5.54;98.30
30897;BME280;64229;52.246;21.054;2022-11-15T09:15:35;100609.31;;;5.96;95.39
30897;BME280;64229;52.246;21.054;2022-11-15T09:18:01;100600.91;;;5.99;95.23
30897;BME280;64229;52.246;21.054;2022-11-15T09:20:26;100596.19;;;6.01;95.27
30897;BME280;64229;52.246;21.054;2022-11-15T09:22:51;100595.72;;;6.04;94.06
30897;BME280;64229;52.246;21.054;2022-11-15T09:25:17;100585.50;;;6.07;93.78
30897;BME280;64229;52.246;21.054;2022-11-15T09:27:42;100585.69;;;6.06;93.95
30897;BME280;64229;52.246;21.054;2022-11-15T09:30:07;100584.94;;;6.17;92.83
30897;BME280;64229;52.246;21.054;2022-11-15T09:32:33;100580.06;;;6.26;92.95
30897;BME280;64229;52.246;21.054;2022-11-15T09:34:59;100571.69;;;6.29;92.64
30897;BME280;64229;52.246;21.054;2022-11-15T09:37:24;100578.59;;;6.42;91.26
30897;BME280;64229;52.246;21.054;2022-11-15T09:39:49;100577.91;;;6.46;91.01
30897;BME280;64229;52.246;21.054;2022-11-15T09:50:14;100558.50;;;5.99;94.97
30897;BME280;64229;52.246;21.054;2022-11-15T09:52:44;100553.47;;;6.09;94.12
30897;BME280;64229;52.246;21.054;2022-11-15T09:55:11;100556.13;;;6.32;92.94
30897;BME280;64229;52.246;21.054;2022-11-15T09:57:52;100539.19;;;6.22;92.67
30897;BME280;64229;52.246;21.054;2022-11-15T10:00:24;100554.97;;;6.28;93.18
30897;BME280;64229;52.246;21.054;2022-11-15T10:03:16;100548.97;;;6.33;92.86
30897;BME280;64229;52.246;21.054;2022-11-15T10:05:46;100546.91;;;6.35;93.41
30897;BME280;64229;52.246;21.054;2022-11-15T10:11:09;100535.56;;;6.04;93.68
30897;BME280;64229;52.246;21.054;2022-11-15T10:13:37;100541.09;;;5.91;94.46
30897;BME280;64229;52.246;21.054;2022-11-15T10:22:12;100543.75;;;5.61;98.27
30897;BME280;64229;52.246;21.054;2022-11-15T10:24:43;100515.06;;;5.58;97.81
30897;BME280;64229;52.246;21.054;2022-11-15T10:27:14;100539.19;;;5.80;97.80
30897;BME280;64229;52.246;21.054;2022-11-15T10:29:50;100538.31;;;5.86;97.12
30897;BME280;64229;52.246;21.054;2022-11-15T10:32:20;100542.31;;;5.89;97.00
30897;BME280;64229;52.246;21.054;2022-11-15T10:34:47;100527.84;;;6.03;97.02
30897;BME280;64229;52.246;21.054;2022-11-15T10:37:13;100521.44;;;6.22;95.11
30897;BME280;64229;52.246;21.054;2022-11-15T10:39:38;100516.69;;;6.48;92.76
30897;BME280;64229;52.246;21.054;2022-11-15T10:42:18;100522.44;;;6.68;91.50
30897;BME280;64229;52.246;21.054;2022-11-15T10:44:50;100522.56;;;6.61;92.03
30897;BME280;64229;52.246;21.054;2022-11-15T10:47:27;100515.63;;;6.72;90.79
30897;BME280;64229;52.246;21.054;2022-11-15T10:49:57;100511.13;;;6.73;90.69
30897;BME280;64229;52.246;21.054;2022-11-15T10:52:23;100508.03;;;6.64;90.74
30897;BME280;64229;52.246;21.054;2022-11-15T10:55:00;100502.63;;;6.35;92.37
30897;BME280;64229;52.246;21.054;2022-11-15T10:57:33;100501.81;;;6.35;93.40
30897;BME280;64229;52.246;21.054;2022-11-15T11:00:01;100507.59;;;6.44;93.44
30897;BME280;64229;52.246;21.054;2022-11-15T11:02:39;100493.88;;;6.23;94.15
30897;BME280;64229;52.246;21.054;2022-11-15T11:08:20;100495.03;;;6.16;94.83
30897;BME280;64229;52.246;21.054;2022-11-15T11:13:24;100496.28;;;6.36;93.76
30897;BME280;64229;52.246;21.054;2022-11-15T11:16:15;100497.47;;;6.29;95.04
30897;BME280;64229;52.246;21.054;2022-11-15T11:18:56;100476.13;;;6.24;93.90
30897;BME280;64229;52.246;21.054;2022-11-15T11:24:43;100493.72;;;6.65;92.96
30897;BME280;64229;52.246;21.054;2022-11-15T11:41:46;100465.53;;;6.35;93.33
30897;BME280;64229;52.246;21.054;2022-11-15T11:49:42;100458.38;;;6.24;95.46
30897;BME280;64229;52.246;21.054;2022-11-15T11:52:26;100454.78;;;6.54;93.38
30897;BME280;64229;52.246;21.054;2022-11-15T11:57:46;100452.03;;;6.49;93.58
30897;BME280;64229;52.246;21.054;2022-11-15T12:00:18;100440.81;;;6.58;94.32
30897;BME280;64229;52.246;21.054;2022-11-15T12:05:51;100429.94;;;6.72;93.33
30897;BME280;64229;52.246;21.054;2022-11-15T12:11:16;100425.31;;;7.07;90.78
30897;BME280;64229;52.246;21.054;2022-11-15T12:13:43;100432.47;;;7.07;91.02
30897;BME280;64229;52.246;21.054;2022-11-15T12:16:21;100432.03;;;6.98;91.36
30897;BME280;64229;52.246;21.054;2022-11-15T12:18:51;100435.97;;;6.95;91.52
30897;BME280;64229;52.246;21.054;2022-11-15T12:21:45;100427.78;;;6.97;92.20
30897;BME280;64229;52.246;21.054;2022-11-15T12:24:16;100416.22;;;7.03;91.39
30897;BME280;64229;52.246;21.054;2022-11-15T12:27:11;100414.94;;;7.22;89.96
30897;BME280;64229;52.246;21.054;2022-11-15T12:29:42;100409.94;;;7.09;90.26
30897;BME280;64229;52.246;21.054;2022-11-15T12:32:31;100416.03;;;6.93;90.02
30897;BME280;64229;52.246;21.054;2022-11-15T12:34:58;100413.19;;;6.83;91.67
30897;BME280;64229;52.246;21.054;2022-11-15T12:42:41;100403.41;;;7.00;90.98
30897;BME280;64229;52.246;21.054;2022-11-15T12:45:31;100390.56;;;7.09;90.41
30897;BME280;64229;52.246;21.054;2022-11-15T13:06:43;100390.84;;;7.24;89.68
30897;BME280;64229;52.246;21.054;2022-11-15T13:12:02;100382.97;;;7.46;88.58
30897;BME280;64229;52.246;21.054;2022-11-15T13:19:59;100382.63;;;7.42;88.75
30897;BME280;64229;52.246;21.054;2022-11-15T13:22:27;100398.91;;;7.46;88.42
30897;BME280;64229;52.246;21.054;2022-11-15T13:25:19;100381.91;;;7.30;89.51
30897;BME280;64229;52.246;21.054;2022-11-15T13:27:48;100378.50;;;7.18;90.57
30897;BME280;64229;52.246;21.054;2022-11-15T13:30:28;100377.06;;;7.27;89.69
30897;BME280;64229;52.246;21.054;2022-11-15T13:32:54;100369.09;;;7.10;90.50
30897;BME280;64229;52.246;21.054;2022-11-15T13:35:22;100371.75;;;7.10;91.53
30897;BME280;64229;52.246;21.054;2022-11-15T13:37:49;100370.47;;;7.13;91.62
30897;BME280;64229;52.246;21.054;2022-11-15T13:40:35;100362.03;;;7.16;91.23
30897;BME280;64229;52.246;21.054;2022-11-15T13:43:23;100362.72;;;7.11;90.91
30897;BME280;64229;52.246;21.054;2022-11-15T13:48:46;100360.66;;;7.13;91.05
30897;BME280;64229;52.246;21.054;2022-11-15T13:51:36;100362.03;;;7.16;90.82
30897;BME280;64229;52.246;21.054;2022-11-15T13:56:37;100359.44;;;7.21;91.14
30897;BME280;64229;52.246;21.054;2022-11-15T13:59:27;100365.66;;;7.27;90.50
30897;BME280;64229;52.246;21.054;2022-11-15T14:01:55;100349.22;;;7.30;89.11
30897;BME280;64229;52.246;21.054;2022-11-15T14:04:23;100359.78;;;7.24;89.46
30897;BME280;64229;52.246;21.054;2022-11-15T14:06:53;100360.56;;;7.08;90.04
30897;BME280;64229;52.246;21.054;2022-11-15T14:09:52;100358.88;;;7.02;91.14
30897;BME280;64229;52.246;21.054;2022-11-15T14:12:28;100354.41;;;6.91;91.92
30897;BME280;64229;52.246;21.054;2022-11-15T14:14:54;100357.25;;;7.01;91.64
30897;BME280;64229;52.246;21.054;2022-11-15T14:19:55;100341.75;;;7.10;90.39
30897;BME280;64229;52.246;21.054;2022-11-15T14:22:29;100339.75;;;7.17;89.77
30897;BME280;64229;52.246;21.054;2022-11-15T14:27:38;100343.75;;;7.03;90.48
30897;BME280;64229;52.246;21.054;2022-11-15T14:30:04;100345.44;;;7.09;90.63
30897;BME280;64229;52.246;21.054;2022-11-15T14:35:14;100339.56;;;7.07;91.70
30897;BME280;64229;52.246;21.054;2022-11-15T14:37:40;100340.78;;;7.16;90.60
30897;BME280;64229;52.246;21.054;2022-11-15T14:40:06;100326.22;;;7.18;90.52
30897;BME280;64229;52.246;21.054;2022-11-15T14:42:32;100333.47;;;7.06;91.37
30897;BME280;64229;52.246;21.054;2022-11-15T14:44:57;100326.72;;;7.15;90.67
30897;BME280;64229;52.246;21.054;2022-11-15T14:47:22;100338.63;;;7.13;90.93
30897;BME280;64229;52.246;21.054;2022-11-15T14:49:48;100339.66;;;7.12;90.74
30897;BME280;64229;52.246;21.054;2022-11-15T14:52:39;100339.44;;;7.13;90.43
30897;BME280;64229;52.246;21.054;2022-11-15T14:55:15;100332.56;;;7.01;91.21
30897;BME280;64229;52.246;21.054;2022-11-15T14:57:42;100342.78;;;7.09;90.81
30897;BME280;64229;52.246;21.054;2022-11-15T15:00:08;100342.09;;;7.13;90.24
30897;BME280;64229;52.246;21.054;2022-11-15T15:02:35;100340.22;;;7.14;90.26